Aérodrome :
LOGIN :

S'inscrire | Disclaimer

   EN    FR    IT 

 










Légende :    VFR   VFR Marginal   IFR   IFR Intensif   IFR Très Intensif
Visi : 
Plafond : 
>= 8 km
>= 3000ft
5 à 8 km
1000 à 3000 ft
1500m à 5 km
500 à 1000 ft
800 à 1500m
200 à 500 ft
< 800m
< 200 ft
Symboles :   Orages  Brouillard  Fortes neiges  Fortes précipitations  Vent > 20 kt
SIGMETs :   Divers  Orages  Givrage  Turbulence  Onde Orograph.  Cendres Volcan.







- Altitude de l'aérodrome : 37 ft


EHVL - Vlieland Heliport

DERNIER METAR :
  • 140413Z AUTO 28029KT 9999 SCT010 FEW015CB BKN016 BKN025 04/03 Q0984 GRN

METARs EXPIRÉS :
  • 140409Z AUTO 27029KT 9999 FEW014 FEW015CB BKN017 BKN023 05/03 Q0984 WHT
  • 140355Z AUTO 27020KT 9999 -TSRA FEW015CB SCT029 BKN035 04/02 Q0984 RERA BLU
  • 140347Z AUTO 28023KT 5000 SHRA FEW015CB SCT023 BKN026 04/02 Q0984 WHT
  • 140333Z AUTO 26024KT 230V290 9999 FEW013 SCT017 BKN026 06/03 Q0984 WHT
  • 140325Z AUTO 26023KT 9999 FEW014 SCT041 BKN046 06/03 Q0984 BLU
  • 140309Z AUTO 27021KT 9999 FEW022 SCT026 BKN040 06/02 Q0984 BLU
  • 140300Z AUTO 27022KT 9999 SCT022 SCT025 BKN030 06/02 Q0984 WHT
  • 140255Z AUTO 27022KT 9999 SCT021 BKN043 BKN048 06/02 Q0984 WHT
  • 140239Z AUTO 27021KT 9999 FEW022 BKN080 OVC088 06/02 Q0984 BLU
  • 140225Z AUTO 27022KT 9999 FEW021 BKN091 OVC098 06/02 Q0984 REDZ BLU
  • 140210Z AUTO 27023KT 9999 SCT020 BKN025 BKN031 06/03 Q0984 WHT
  • 140200Z AUTO 28018KT 9999 FEW002 SCT020 BKN026 05/03 Q0984 WHT
  • 140155Z AUTO 29019G29KT 6000 +DZ FEW002 SCT026 BKN029 05/02 Q0984 WHT
  • 140136Z AUTO 26025KT 9000 HZ FEW017 SCT021 BKN027 06/03 Q0984 WHT
  • 140126Z AUTO 26024KT 9000 -RA SCT018 SCT022 BKN032 05/03 Q0984 WHT
  • 140125Z AUTO 26024KT 9000 HZ SCT018 SCT022 BKN042 06/03 Q0984 REDZ WHT

Prévision TAF périmée.
Pas de NOTAMs connus pour ce terrain.



MET'MAP, la Météo Aéronautique d'un coup d'oeil ! - Copyright ORBIFLY Décembre 2007 - Disclaimer

ORBIFLY MET'MAP TEAM :

Programmation & Développement : Alexandra Zaïnal
Conception & Développement : Baudouin d'Aumeries
Co-Programmation & Développement : Marc-Olivier Méhu
Soutien technique & logistique : Manuel Goepfert

Contact : metmap@orbifly.com




SOURCES & CREDITS :

   NOAA